Time;durP1;ratioP1;P1;durP2;ratioP2;P2;SDS_P1;SDS_P2;PMS_P1;PMS_P2;Temp;Humidity;BMP_temperature;BMP_pressure;BME280_temperature;BME280_humidity;BME280_pressure;Samples;Min_cycle;Max_cycle;Signal;HPM_P1;HPM_P2
2022/07/28 00:00:00;;;;;;;0.4;0.4;;;;;;;16.5;100.0;101720;;;;
2022/07/28 00:01:00;;;;;;;0.4;0.4;;;;;;;16.5;100.0;101720;;;;
2022/07/28 00:02:01;;;;;;;0.4;0.4;;;;;;;16.5;100.0;101720;;;;
2022/07/28 00:03:00;;;;;;;0.4;0.4;;;;;;;16.6;100.0;101720;;;;
2022/07/28 00:04:00;;;;;;;0.4;0.4;;;;;;;16.6;100.0;101720;;;;
2022/07/28 00:05:00;;;;;;;0.4;0.4;;;;;;;16.5;100.0;101720;;;;
2022/07/28 00:06:00;;;;;;;0.3;0.3;;;;;;;16.5;100.0;101720;;;;
2022/07/28 00:07:01;;;;;;;0.3;0.3;;;;;;;16.3;100.0;101720;;;;
2022/07/28 00:08:00;;;;;;;0.3;0.3;;;;;;;16.3;100.0;101720;;;;
2022/07/28 00:09:00;;;;;;;0.3;0.3;;;;;;;16.4;100.0;101730;;;;
2022/07/28 00:10:01;;;;;;;0.3;0.3;;;;;;;16.4;100.0;101730;;;;
2022/07/28 00:11:00;;;;;;;0.3;0.3;;;;;;;16.5;100.0;101730;;;;
2022/07/28 00:12:00;;;;;;;0.3;0.3;;;;;;;16.5;100.0;101730;;;;
2022/07/28 00:13:00;;;;;;;0.3;0.3;;;;;;;16.5;100.0;101730;;;;
2022/07/28 00:14:00;;;;;;;0.3;0.3;;;;;;;16.5;100.0;101730;;;;
2022/07/28 00:15:00;;;;;;;0.3;0.3;;;;;;;16.5;100.0;101740;;;;
2022/07/28 00:16:00;;;;;;;0.3;0.3;;;;;;;16.5;100.0;101740;;;;
2022/07/28 00:17:00;;;;;;;0.3;0.3;;;;;;;16.4;100.0;101740;;;;
2022/07/28 00:18:00;;;;;;;0.3;0.3;;;;;;;16.4;100.0;101740;;;;
2022/07/28 00:19:00;;;;;;;0.3;0.3;;;;;;;16.5;100.0;101730;;;;
2022/07/28 00:20:00;;;;;;;0.3;0.3;;;;;;;16.5;100.0;101730;;;;
2022/07/28 00:21:01;;;;;;;0.3;0.3;;;;;;;16.3;100.0;101720;;;;
2022/07/28 00:22:01;;;;;;;0.3;0.3;;;;;;;16.3;100.0;101720;;;;
2022/07/28 00:23:00;;;;;;;0.3;0.3;;;;;;;16.3;100.0;101720;;;;
2022/07/28 00:24:00;;;;;;;0.3;0.3;;;;;;;16.3;100.0;101720;;;;
2022/07/28 00:25:00;;;;;;;0.3;0.3;;;;;;;16.2;100.0;101710;;;;
2022/07/28 00:26:00;;;;;;;0.4;0.4;;;;;;;16.2;100.0;101710;;;;
2022/07/28 00:27:00;;;;;;;0.4;0.4;;;;;;;16.0;100.0;101720;;;;
2022/07/28 00:28:00;;;;;;;0.4;0.4;;;;;;;16.0;100.0;101720;;;;
2022/07/28 00:29:00;;;;;;;0.4;0.4;;;;;;;15.8;100.0;101720;;;;
2022/07/28 00:30:00;;;;;;;0.4;0.4;;;;;;;15.8;100.0;101720;;;;
2022/07/28 00:31:10;;;;;;;0.4;0.4;;;;;;;15.9;100.0;101720;;;;
2022/07/28 00:32:00;;;;;;;0.4;0.4;;;;;;;15.9;100.0;101720;;;;
2022/07/28 00:33:00;;;;;;;0.4;0.4;;;;;;;15.9;100.0;101720;;;;
2022/07/28 00:34:00;;;;;;;0.4;0.4;;;;;;;15.9;100.0;101720;;;;
2022/07/28 00:35:00;;;;;;;0.4;0.4;;;;;;;15.8;100.0;101710;;;;
2022/07/28 00:36:00;;;;;;;0.4;0.4;;;;;;;15.8;100.0;101710;;;;
2022/07/28 00:37:06;;;;;;;0.4;0.4;;;;;;;15.8;100.0;101720;;;;
2022/07/28 00:38:01;;;;;;;0.4;0.4;;;;;;;15.8;100.0;101720;;;;
2022/07/28 00:39:00;;;;;;;0.4;0.4;;;;;;;15.9;100.0;101720;;;;
2022/07/28 00:40:00;;;;;;;0.4;0.4;;;;;;;15.9;100.0;101720;;;;
2022/07/28 00:42:00;;;;;;;0.4;0.4;;;;;;;15.9;100.0;101710;;;;
2022/07/28 00:43:00;;;;;;;0.4;0.4;;;;;;;15.9;100.0;101710;;;;
2022/07/28 00:44:00;;;;;;;0.4;0.4;;;;;;;15.9;100.0;101710;;;;
2022/07/28 00:45:00;;;;;;;0.4;0.4;;;;;;;15.9;100.0;101720;;;;
2022/07/28 00:46:00;;;;;;;0.3;0.3;;;;;;;15.9;100.0;101720;;;;
2022/07/28 00:47:00;;;;;;;0.3;0.3;;;;;;;15.8;100.0;101710;;;;
2022/07/28 00:48:00;;;;;;;0.3;0.3;;;;;;;15.8;100.0;101710;;;;
2022/07/28 00:49:00;;;;;;;0.3;0.3;;;;;;;15.7;100.0;101710;;;;
2022/07/28 00:50:01;;;;;;;0.3;0.3;;;;;;;15.7;100.0;101710;;;;
2022/07/28 00:51:00;;;;;;;0.3;0.3;;;;;;;15.8;100.0;101710;;;;
2022/07/28 00:52:01;;;;;;;0.3;0.3;;;;;;;15.8;100.0;101710;;;;
2022/07/28 00:53:00;;;;;;;0.3;0.3;;;;;;;15.9;100.0;101710;;;;
2022/07/28 00:54:00;;;;;;;0.3;0.3;;;;;;;15.9;100.0;101710;;;;
2022/07/28 00:55:01;;;;;;;0.3;0.3;;;;;;;15.8;100.0;101710;;;;
2022/07/28 00:56:06;;;;;;;0.3;0.3;;;;;;;15.8;100.0;101710;;;;
2022/07/28 00:57:00;;;;;;;0.3;0.3;;;;;;;15.5;100.0;101700;;;;
2022/07/28 00:58:00;;;;;;;0.3;0.3;;;;;;;15.5;100.0;101700;;;;
2022/07/28 00:59:00;;;;;;;0.3;0.3;;;;;;;15.5;100.0;101700;;;;
2022/07/28 01:00:00;;;;;;;0.3;0.3;;;;;;;15.5;100.0;101700;;;;
2022/07/28 01:01:00;;;;;;;0.3;0.3;;;;;;;15.4;100.0;101710;;;;
2022/07/28 01:02:01;;;;;;;0.3;0.3;;;;;;;15.4;100.0;101710;;;;
2022/07/28 01:03:01;;;;;;;0.3;0.3;;;;;;;15.4;100.0;101710;;;;
2022/07/28 01:04:01;;;;;;;0.3;0.3;;;;;;;15.4;100.0;101710;;;;
2022/07/28 01:05:00;;;;;;;0.3;0.3;;;;;;;15.5;100.0;101710;;;;
2022/07/28 01:06:01;;;;;;;0.3;0.3;;;;;;;15.5;100.0;101710;;;;
2022/07/28 01:07:10;;;;;;;0.3;0.3;;;;;;;15.6;100.0;101710;;;;
2022/07/28 01:08:02;;;;;;;0.3;0.3;;;;;;;15.6;100.0;101710;;;;
2022/07/28 01:09:00;;;;;;;0.3;0.3;;;;;;;15.6;100.0;101700;;;;
2022/07/28 01:10:05;;;;;;;0.3;0.3;;;;;;;15.6;100.0;101700;;;;
2022/07/28 01:11:06;;;;;;;0.3;0.3;;;;;;;15.7;100.0;101700;;;;
2022/07/28 01:12:10;;;;;;;0.3;0.3;;;;;;;15.7;100.0;101700;;;;
2022/07/28 01:13:09;;;;;;;0.3;0.3;;;;;;;15.5;100.0;101690;;;;
2022/07/28 01:14:00;;;;;;;0.3;0.3;;;;;;;15.5;100.0;101690;;;;
2022/07/28 01:15:10;;;;;;;0.3;0.3;;;;;;;15.4;100.0;101690;;;;
2022/07/28 01:16:03;;;;;;;0.3;0.3;;;;;;;15.4;100.0;101690;;;;
2022/07/28 01:17:05;;;;;;;0.3;0.3;;;;;;;15.5;100.0;101690;;;;
2022/07/28 01:18:10;;;;;;;0.3;0.3;;;;;;;15.5;100.0;101690;;;;
2022/07/28 01:19:03;;;;;;;0.3;0.3;;;;;;;15.4;100.0;101690;;;;
2022/07/28 01:20:08;;;;;;;0.3;0.3;;;;;;;15.4;100.0;101690;;;;
2022/07/28 01:21:02;;;;;;;0.3;0.3;;;;;;;15.3;100.0;101690;;;;
2022/07/28 01:22:00;;;;;;;0.3;0.3;;;;;;;15.3;100.0;101690;;;;
2022/07/28 01:23:03;;;;;;;0.3;0.3;;;;;;;15.3;100.0;101690;;;;
2022/07/28 01:24:10;;;;;;;0.3;0.3;;;;;;;15.3;100.0;101690;;;;
2022/07/28 01:25:11;;;;;;;0.3;0.3;;;;;;;15.2;100.0;101690;;;;
2022/07/28 01:26:10;;;;;;;0.6;0.6;;;;;;;15.2;100.0;101690;;;;
2022/07/28 01:27:04;;;;;;;0.6;0.6;;;;;;;15.2;100.0;101690;;;;
2022/07/28 01:28:10;;;;;;;0.6;0.6;;;;;;;15.2;100.0;101690;;;;
2022/07/28 01:29:07;;;;;;;0.6;0.6;;;;;;;15.2;100.0;101690;;;;
2022/07/28 01:30:03;;;;;;;0.6;0.6;;;;;;;15.2;100.0;101690;;;;
2022/07/28 01:31:04;;;;;;;0.6;0.6;;;;;;;15.2;100.0;101690;;;;
2022/07/28 01:32:03;;;;;;;0.6;0.6;;;;;;;15.2;100.0;101690;;;;
2022/07/28 01:33:01;;;;;;;0.6;0.6;;;;;;;15.1;100.0;101690;;;;
2022/07/28 01:34:04;;;;;;;0.6;0.6;;;;;;;15.1;100.0;101690;;;;
2022/07/28 01:35:10;;;;;;;0.6;0.6;;;;;;;15.0;100.0;101690;;;;
2022/07/28 01:36:01;;;;;;;0.6;0.6;;;;;;;15.0;100.0;101690;;;;
2022/07/28 01:37:05;;;;;;;0.6;0.6;;;;;;;15.1;100.0;101680;;;;
2022/07/28 01:38:02;;;;;;;0.6;0.6;;;;;;;15.1;100.0;101680;;;;
2022/07/28 01:39:00;;;;;;;0.6;0.6;;;;;;;15.1;100.0;101680;;;;
2022/07/28 01:40:02;;;;;;;0.6;0.6;;;;;;;15.1;100.0;101680;;;;
2022/07/28 01:41:01;;;;;;;0.6;0.6;;;;;;;15.1;100.0;101680;;;;
2022/07/28 01:42:01;;;;;;;0.6;0.6;;;;;;;15.1;100.0;101680;;;;
2022/07/28 01:43:01;;;;;;;0.6;0.6;;;;;;;15.2;100.0;101680;;;;
2022/07/28 01:44:03;;;;;;;0.6;0.6;;;;;;;15.2;100.0;101680;;;;
2022/07/28 01:45:01;;;;;;;0.6;0.6;;;;;;;15.2;100.0;101680;;;;
2022/07/28 01:46:01;;;;;;;0.3;0.3;;;;;;;15.2;100.0;101680;;;;
2022/07/28 01:47:06;;;;;;;0.3;0.3;;;;;;;15.2;100.0;101680;;;;
2022/07/28 01:48:01;;;;;;;0.3;0.3;;;;;;;15.2;100.0;101680;;;;
2022/07/28 01:49:01;;;;;;;0.3;0.3;;;;;;;15.2;100.0;101680;;;;
2022/07/28 01:50:02;;;;;;;0.3;0.3;;;;;;;15.2;100.0;101680;;;;
2022/07/28 01:51:01;;;;;;;0.3;0.3;;;;;;;15.1;100.0;101680;;;;
2022/07/28 01:52:01;;;;;;;0.3;0.3;;;;;;;15.1;100.0;101680;;;;
2022/07/28 01:53:00;;;;;;;0.3;0.3;;;;;;;15.1;100.0;101680;;;;
2022/07/28 01:54:01;;;;;;;0.3;0.3;;;;;;;15.1;100.0;101680;;;;
2022/07/28 01:55:01;;;;;;;0.3;0.3;;;;;;;15.0;100.0;101680;;;;
2022/07/28 01:56:00;;;;;;;0.3;0.3;;;;;;;15.0;100.0;101680;;;;
2022/07/28 01:57:01;;;;;;;0.3;0.3;;;;;;;15.0;100.0;101670;;;;
2022/07/28 01:58:01;;;;;;;0.3;0.3;;;;;;;15.0;100.0;101670;;;;
2022/07/28 01:59:03;;;;;;;0.3;0.3;;;;;;;14.9;100.0;101670;;;;
2022/07/28 02:00:01;;;;;;;0.3;0.3;;;;;;;14.9;100.0;101670;;;;
2022/07/28 02:01:02;;;;;;;0.3;0.3;;;;;;;14.9;100.0;101670;;;;
2022/07/28 02:02:01;;;;;;;0.3;0.3;;;;;;;14.9;100.0;101670;;;;
2022/07/28 02:03:02;;;;;;;0.3;0.3;;;;;;;14.8;100.0;101670;;;;
2022/07/28 02:04:01;;;;;;;0.3;0.3;;;;;;;14.8;100.0;101670;;;;
2022/07/28 02:05:02;;;;;;;0.3;0.3;;;;;;;14.9;100.0;101670;;;;
2022/07/28 02:06:01;;;;;;;0.5;0.5;;;;;;;14.9;100.0;101670;;;;
2022/07/28 02:07:01;;;;;;;0.5;0.5;;;;;;;14.7;100.0;101660;;;;
2022/07/28 02:08:01;;;;;;;0.5;0.5;;;;;;;14.7;100.0;101660;;;;
2022/07/28 02:09:01;;;;;;;0.5;0.5;;;;;;;14.8;100.0;101660;;;;
2022/07/28 02:10:00;;;;;;;0.5;0.5;;;;;;;14.8;100.0;101660;;;;
2022/07/28 02:12:01;;;;;;;0.5;0.5;;;;;;;14.8;100.0;101670;;;;
2022/07/28 02:13:00;;;;;;;0.5;0.5;;;;;;;14.7;100.0;101660;;;;
2022/07/28 02:14:00;;;;;;;0.5;0.5;;;;;;;14.7;100.0;101660;;;;
2022/07/28 02:15:01;;;;;;;0.5;0.5;;;;;;;14.8;100.0;101660;;;;
2022/07/28 02:16:02;;;;;;;0.5;0.5;;;;;;;14.8;100.0;101660;;;;
2022/07/28 02:17:02;;;;;;;0.5;0.5;;;;;;;14.8;100.0;101660;;;;
2022/07/28 02:18:01;;;;;;;0.5;0.5;;;;;;;14.8;100.0;101660;;;;
2022/07/28 02:19:01;;;;;;;0.5;0.5;;;;;;;14.7;100.0;101660;;;;
2022/07/28 02:20:01;;;;;;;0.5;0.5;;;;;;;14.7;100.0;101660;;;;
2022/07/28 02:21:00;;;;;;;0.5;0.5;;;;;;;14.8;100.0;101660;;;;
2022/07/28 02:22:01;;;;;;;0.5;0.5;;;;;;;14.8;100.0;101660;;;;
2022/07/28 02:23:00;;;;;;;0.5;0.5;;;;;;;14.9;100.0;101660;;;;
2022/07/28 02:24:00;;;;;;;0.5;0.5;;;;;;;14.9;100.0;101660;;;;
2022/07/28 02:25:01;;;;;;;0.5;0.5;;;;;;;14.8;100.0;101650;;;;
2022/07/28 02:26:02;;;;;;;0.5;0.5;;;;;;;14.8;100.0;101650;;;;
2022/07/28 02:27:04;;;;;;;0.5;0.5;;;;;;;14.7;100.0;101650;;;;
2022/07/28 02:28:02;;;;;;;0.5;0.5;;;;;;;14.7;100.0;101650;;;;
2022/07/28 02:29:02;;;;;;;0.5;0.5;;;;;;;14.7;100.0;101650;;;;
2022/07/28 02:30:03;;;;;;;0.5;0.5;;;;;;;14.7;100.0;101650;;;;
2022/07/28 02:31:04;;;;;;;0.5;0.5;;;;;;;14.8;100.0;101650;;;;
2022/07/28 02:32:14;;;;;;;0.5;0.5;;;;;;;14.8;100.0;101650;;;;
2022/07/28 02:33:05;;;;;;;0.5;0.5;;;;;;;14.6;100.0;101640;;;;
2022/07/28 02:34:02;;;;;;;0.5;0.5;;;;;;;14.6;100.0;101640;;;;
2022/07/28 02:35:06;;;;;;;0.5;0.5;;;;;;;14.6;100.0;101640;;;;
2022/07/28 02:36:05;;;;;;;0.5;0.5;;;;;;;14.6;100.0;101640;;;;
2022/07/28 02:37:01;;;;;;;0.5;0.5;;;;;;;14.5;100.0;101650;;;;
2022/07/28 02:38:01;;;;;;;0.5;0.5;;;;;;;14.5;100.0;101650;;;;
2022/07/28 02:39:01;;;;;;;0.5;0.5;;;;;;;14.7;100.0;101650;;;;
2022/07/28 02:40:01;;;;;;;0.5;0.5;;;;;;;14.7;100.0;101650;;;;
2022/07/28 02:41:02;;;;;;;0.5;0.5;;;;;;;14.7;100.0;101650;;;;
2022/07/28 02:42:03;;;;;;;0.5;0.5;;;;;;;14.7;100.0;101650;;;;
2022/07/28 02:43:00;;;;;;;0.5;0.5;;;;;;;14.7;100.0;101660;;;;
2022/07/28 02:44:02;;;;;;;0.5;0.5;;;;;;;14.7;100.0;101660;;;;
2022/07/28 02:45:03;;;;;;;0.5;0.5;;;;;;;14.7;100.0;101650;;;;
2022/07/28 02:46:04;;;;;;;0.4;0.4;;;;;;;14.7;100.0;101650;;;;
2022/07/28 02:47:03;;;;;;;0.4;0.4;;;;;;;14.7;100.0;101650;;;;
2022/07/28 02:48:01;;;;;;;0.4;0.4;;;;;;;14.7;100.0;101650;;;;
2022/07/28 02:49:04;;;;;;;0.4;0.4;;;;;;;14.7;100.0;101650;;;;
2022/07/28 02:50:01;;;;;;;0.4;0.4;;;;;;;14.7;100.0;101650;;;;
2022/07/28 02:51:01;;;;;;;0.4;0.4;;;;;;;14.8;100.0;101650;;;;
2022/07/28 02:52:02;;;;;;;0.4;0.4;;;;;;;14.8;100.0;101650;;;;
2022/07/28 02:53:13;;;;;;;0.4;0.4;;;;;;;14.6;100.0;101650;;;;
2022/07/28 02:54:02;;;;;;;0.4;0.4;;;;;;;14.6;100.0;101650;;;;
2022/07/28 02:55:01;;;;;;;0.4;0.4;;;;;;;14.7;100.0;101650;;;;
2022/07/28 02:56:01;;;;;;;0.4;0.4;;;;;;;14.7;100.0;101650;;;;
2022/07/28 02:57:00;;;;;;;0.4;0.4;;;;;;;14.6;100.0;101650;;;;
2022/07/28 02:58:07;;;;;;;0.4;0.4;;;;;;;14.6;100.0;101650;;;;
2022/07/28 02:59:01;;;;;;;0.4;0.4;;;;;;;14.7;100.0;101650;;;;
2022/07/28 03:00:00;;;;;;;0.4;0.4;;;;;;;14.7;100.0;101650;;;;
2022/07/28 03:01:00;;;;;;;0.4;0.4;;;;;;;14.5;100.0;101650;;;;
2022/07/28 03:02:00;;;;;;;0.4;0.4;;;;;;;14.5;100.0;101650;;;;
2022/07/28 03:03:00;;;;;;;0.4;0.4;;;;;;;14.6;100.0;101640;;;;
2022/07/28 03:04:00;;;;;;;0.4;0.4;;;;;;;14.6;100.0;101640;;;;
2022/07/28 03:05:01;;;;;;;0.4;0.4;;;;;;;14.6;100.0;101650;;;;
2022/07/28 03:06:00;;;;;;;0.5;0.5;;;;;;;14.6;100.0;101650;;;;
2022/07/28 03:07:00;;;;;;;0.5;0.5;;;;;;;14.5;100.0;101650;;;;
2022/07/28 03:08:00;;;;;;;0.5;0.5;;;;;;;14.5;100.0;101650;;;;
2022/07/28 03:09:02;;;;;;;0.5;0.5;;;;;;;14.4;100.0;101650;;;;
2022/07/28 03:10:00;;;;;;;0.5;0.5;;;;;;;14.4;100.0;101650;;;;
2022/07/28 03:11:10;;;;;;;0.5;0.5;;;;;;;14.6;100.0;101650;;;;
2022/07/28 03:12:00;;;;;;;0.5;0.5;;;;;;;14.6;100.0;101650;;;;
2022/07/28 03:13:01;;;;;;;0.5;0.5;;;;;;;14.6;100.0;101650;;;;
2022/07/28 03:14:02;;;;;;;0.5;0.5;;;;;;;14.6;100.0;101650;;;;
2022/07/28 03:15:00;;;;;;;0.5;0.5;;;;;;;14.5;100.0;101650;;;;
2022/07/28 03:16:00;;;;;;;0.5;0.5;;;;;;;14.5;100.0;101650;;;;
2022/07/28 03:17:00;;;;;;;0.5;0.5;;;;;;;14.6;100.0;101650;;;;
2022/07/28 03:18:00;;;;;;;0.5;0.5;;;;;;;14.6;100.0;101650;;;;
2022/07/28 03:19:00;;;;;;;0.5;0.5;;;;;;;14.5;100.0;101650;;;;
2022/07/28 03:20:00;;;;;;;0.5;0.5;;;;;;;14.5;100.0;101650;;;;
2022/07/28 03:21:00;;;;;;;0.5;0.5;;;;;;;14.5;100.0;101650;;;;
2022/07/28 03:22:00;;;;;;;0.5;0.5;;;;;;;14.5;100.0;101650;;;;
2022/07/28 03:23:01;;;;;;;0.5;0.5;;;;;;;14.5;100.0;101650;;;;
2022/07/28 03:24:00;;;;;;;0.5;0.5;;;;;;;14.5;100.0;101650;;;;
2022/07/28 03:25:06;;;;;;;0.5;0.5;;;;;;;14.6;100.0;101650;;;;
2022/07/28 03:26:04;;;;;;;0.5;0.5;;;;;;;14.6;100.0;101650;;;;
2022/07/28 03:27:11;;;;;;;0.5;0.5;;;;;;;14.4;100.0;101660;;;;
2022/07/28 03:28:02;;;;;;;0.5;0.5;;;;;;;14.4;100.0;101660;;;;
2022/07/28 03:29:00;;;;;;;0.5;0.5;;;;;;;14.5;100.0;101660;;;;
2022/07/28 03:30:04;;;;;;;0.5;0.5;;;;;;;14.5;100.0;101660;;;;
2022/07/28 03:31:03;;;;;;;0.5;0.5;;;;;;;14.6;100.0;101660;;;;
2022/07/28 03:32:00;;;;;;;0.5;0.5;;;;;;;14.6;100.0;101660;;;;
2022/07/28 03:33:01;;;;;;;0.5;0.5;;;;;;;14.5;100.0;101660;;;;
2022/07/28 03:34:00;;;;;;;0.5;0.5;;;;;;;14.5;100.0;101660;;;;
2022/07/28 03:35:00;;;;;;;0.5;0.5;;;;;;;14.3;100.0;101660;;;;
2022/07/28 03:36:02;;;;;;;0.5;0.5;;;;;;;14.3;100.0;101660;;;;
2022/07/28 03:37:02;;;;;;;0.5;0.5;;;;;;;14.4;100.0;101660;;;;
2022/07/28 03:38:00;;;;;;;0.5;0.5;;;;;;;14.4;100.0;101660;;;;
2022/07/28 03:39:02;;;;;;;0.5;0.5;;;;;;;14.2;100.0;101660;;;;
2022/07/28 03:40:01;;;;;;;0.5;0.5;;;;;;;14.2;100.0;101660;;;;
2022/07/28 03:41:00;;;;;;;0.5;0.5;;;;;;;14.2;100.0;101660;;;;
2022/07/28 03:42:01;;;;;;;0.5;0.5;;;;;;;14.2;100.0;101660;;;;
2022/07/28 03:43:05;;;;;;;0.5;0.5;;;;;;;14.4;100.0;101670;;;;
2022/07/28 03:44:01;;;;;;;0.5;0.5;;;;;;;14.4;100.0;101670;;;;
2022/07/28 03:45:00;;;;;;;0.7;0.7;;;;;;;14.5;100.0;101670;;;;
2022/07/28 03:46:00;;;;;;;0.7;0.7;;;;;;;14.5;100.0;101670;;;;
2022/07/28 03:47:00;;;;;;;0.7;0.7;;;;;;;14.4;100.0;101670;;;;
2022/07/28 03:48:00;;;;;;;0.7;0.7;;;;;;;14.4;100.0;101670;;;;
2022/07/28 03:49:00;;;;;;;0.7;0.7;;;;;;;14.4;100.0;101670;;;;
2022/07/28 03:50:00;;;;;;;0.7;0.7;;;;;;;14.4;100.0;101670;;;;
2022/07/28 03:51:00;;;;;;;0.7;0.7;;;;;;;14.4;100.0;101660;;;;
2022/07/28 03:52:00;;;;;;;0.7;0.7;;;;;;;14.4;100.0;101660;;;;
2022/07/28 03:53:01;;;;;;;0.7;0.7;;;;;;;14.5;100.0;101660;;;;
2022/07/28 03:54:00;;;;;;;0.7;0.7;;;;;;;14.5;100.0;101660;;;;
2022/07/28 03:55:00;;;;;;;0.7;0.7;;;;;;;14.6;100.0;101660;;;;
2022/07/28 03:56:02;;;;;;;0.7;0.7;;;;;;;14.6;100.0;101660;;;;
2022/07/28 03:57:00;;;;;;;0.7;0.7;;;;;;;14.3;100.0;101670;;;;
2022/07/28 03:58:00;;;;;;;0.7;0.7;;;;;;;14.3;100.0;101670;;;;
2022/07/28 03:59:00;;;;;;;0.7;0.7;;;;;;;14.3;100.0;101670;;;;
2022/07/28 04:00:00;;;;;;;0.7;0.7;;;;;;;14.3;100.0;101670;;;;
2022/07/28 04:01:00;;;;;;;0.7;0.7;;;;;;;14.4;100.0;101670;;;;
2022/07/28 04:02:00;;;;;;;0.7;0.7;;;;;;;14.4;100.0;101670;;;;
2022/07/28 04:03:00;;;;;;;0.7;0.7;;;;;;;14.2;100.0;101670;;;;
2022/07/28 04:04:00;;;;;;;0.7;0.7;;;;;;;14.2;100.0;101670;;;;
2022/07/28 04:05:00;;;;;;;0.5;0.5;;;;;;;14.2;100.0;101670;;;;
2022/07/28 04:06:00;;;;;;;0.5;0.5;;;;;;;14.2;100.0;101670;;;;
2022/07/28 04:07:00;;;;;;;0.5;0.5;;;;;;;14.1;100.0;101670;;;;
2022/07/28 04:08:00;;;;;;;0.5;0.5;;;;;;;14.1;100.0;101670;;;;
2022/07/28 04:09:00;;;;;;;0.5;0.5;;;;;;;14.2;100.0;101670;;;;
2022/07/28 04:10:00;;;;;;;0.5;0.5;;;;;;;14.2;100.0;101670;;;;
2022/07/28 04:11:00;;;;;;;0.5;0.5;;;;;;;14.2;100.0;101660;;;;
2022/07/28 04:12:00;;;;;;;0.5;0.5;;;;;;;14.2;100.0;101660;;;;
2022/07/28 04:13:00;;;;;;;0.5;0.5;;;;;;;14.1;100.0;101670;;;;
2022/07/28 04:14:00;;;;;;;0.5;0.5;;;;;;;14.1;100.0;101670;;;;
2022/07/28 04:15:00;;;;;;;0.5;0.5;;;;;;;14.2;100.0;101660;;;;
2022/07/28 04:16:00;;;;;;;0.5;0.5;;;;;;;14.2;100.0;101660;;;;
2022/07/28 04:17:00;;;;;;;0.5;0.5;;;;;;;14.2;100.0;101670;;;;
2022/07/28 04:18:00;;;;;;;0.5;0.5;;;;;;;14.2;100.0;101670;;;;
2022/07/28 04:19:00;;;;;;;0.5;0.5;;;;;;;14.1;100.0;101660;;;;
2022/07/28 04:20:00;;;;;;;0.5;0.5;;;;;;;14.1;100.0;101660;;;;
2022/07/28 04:21:00;;;;;;;0.5;0.5;;;;;;;14.1;100.0;101660;;;;
2022/07/28 04:22:00;;;;;;;0.5;0.5;;;;;;;14.1;100.0;101660;;;;
2022/07/28 04:23:00;;;;;;;0.5;0.5;;;;;;;14.2;100.0;101660;;;;
2022/07/28 04:24:02;;;;;;;0.5;0.5;;;;;;;14.2;100.0;101660;;;;
2022/07/28 04:25:01;;;;;;;0.5;0.5;;;;;;;14.1;100.0;101660;;;;
2022/07/28 04:26:00;;;;;;;0.5;0.5;;;;;;;14.1;100.0;101660;;;;
2022/07/28 04:27:00;;;;;;;0.5;0.5;;;;;;;14.0;100.0;101660;;;;
2022/07/28 04:28:01;;;;;;;0.5;0.5;;;;;;;14.0;100.0;101660;;;;
2022/07/28 04:29:03;;;;;;;0.5;0.5;;;;;;;13.9;100.0;101660;;;;
2022/07/28 04:30:00;;;;;;;0.5;0.5;;;;;;;13.9;100.0;101660;;;;
2022/07/28 04:31:00;;;;;;;0.5;0.5;;;;;;;14.0;100.0;101660;;;;
2022/07/28 04:32:00;;;;;;;0.5;0.5;;;;;;;14.0;100.0;101660;;;;
2022/07/28 04:33:00;;;;;;;0.5;0.5;;;;;;;14.0;100.0;101650;;;;
2022/07/28 04:34:00;;;;;;;0.5;0.5;;;;;;;14.0;100.0;101650;;;;
2022/07/28 04:35:00;;;;;;;0.5;0.5;;;;;;;13.9;100.0;101650;;;;
2022/07/28 04:36:00;;;;;;;0.5;0.5;;;;;;;13.9;100.0;101650;;;;
2022/07/28 04:37:00;;;;;;;0.5;0.5;;;;;;;13.9;100.0;101650;;;;
2022/07/28 04:38:00;;;;;;;0.5;0.5;;;;;;;13.9;100.0;101650;;;;
2022/07/28 04:39:00;;;;;;;0.5;0.5;;;;;;;13.9;100.0;101650;;;;
2022/07/28 04:40:00;;;;;;;0.5;0.5;;;;;;;13.9;100.0;101650;;;;
2022/07/28 04:41:00;;;;;;;0.5;0.5;;;;;;;13.9;100.0;101660;;;;
2022/07/28 04:42:00;;;;;;;0.5;0.5;;;;;;;13.9;100.0;101660;;;;
2022/07/28 04:43:00;;;;;;;0.5;0.5;;;;;;;13.8;100.0;101660;;;;
2022/07/28 04:44:00;;;;;;;0.5;0.5;;;;;;;13.8;100.0;101660;;;;
2022/07/28 04:45:00;;;;;;;0.5;0.5;;;;;;;13.7;100.0;101660;;;;
2022/07/28 04:46:00;;;;;;;0.5;0.5;;;;;;;13.7;100.0;101660;;;;
2022/07/28 04:47:00;;;;;;;0.5;0.5;;;;;;;13.9;100.0;101650;;;;
2022/07/28 04:48:00;;;;;;;0.5;0.5;;;;;;;13.9;100.0;101650;;;;
2022/07/28 04:49:00;;;;;;;0.5;0.5;;;;;;;13.8;100.0;101650;;;;
2022/07/28 04:50:00;;;;;;;0.5;0.5;;;;;;;13.8;100.0;101650;;;;
2022/07/28 04:51:00;;;;;;;0.5;0.5;;;;;;;13.9;100.0;101650;;;;
2022/07/28 04:52:00;;;;;;;0.5;0.5;;;;;;;13.9;100.0;101650;;;;
2022/07/28 04:53:00;;;;;;;0.5;0.5;;;;;;;13.9;100.0;101650;;;;
2022/07/28 04:54:00;;;;;;;0.5;0.5;;;;;;;13.9;100.0;101650;;;;
2022/07/28 04:55:00;;;;;;;0.5;0.5;;;;;;;13.8;100.0;101660;;;;
2022/07/28 04:56:00;;;;;;;0.5;0.5;;;;;;;13.8;100.0;101660;;;;
2022/07/28 04:57:10;;;;;;;0.5;0.5;;;;;;;13.8;100.0;101660;;;;
2022/07/28 04:58:00;;;;;;;0.5;0.5;;;;;;;13.8;100.0;101660;;;;
2022/07/28 04:59:02;;;;;;;0.5;0.5;;;;;;;13.9;100.0;101660;;;;
2022/07/28 05:00:00;;;;;;;0.5;0.5;;;;;;;13.9;100.0;101660;;;;
2022/07/28 05:01:00;;;;;;;0.5;0.5;;;;;;;13.9;100.0;101660;;;;
2022/07/28 05:02:00;;;;;;;0.5;0.5;;;;;;;13.9;100.0;101660;;;;
2022/07/28 05:03:01;;;;;;;0.5;0.5;;;;;;;13.9;100.0;101660;;;;
2022/07/28 05:04:00;;;;;;;0.5;0.5;;;;;;;13.9;100.0;101660;;;;
2022/07/28 05:05:00;;;;;;;0.5;0.5;;;;;;;14.0;100.0;101650;;;;
2022/07/28 05:06:00;;;;;;;0.5;0.5;;;;;;;14.0;100.0;101650;;;;
2022/07/28 05:07:00;;;;;;;0.5;0.5;;;;;;;14.0;100.0;101650;;;;
2022/07/28 05:08:00;;;;;;;0.5;0.5;;;;;;;14.0;100.0;101650;;;;
2022/07/28 05:09:00;;;;;;;0.5;0.5;;;;;;;14.0;100.0;101650;;;;
2022/07/28 05:10:00;;;;;;;0.5;0.5;;;;;;;14.0;100.0;101650;;;;
2022/07/28 05:11:00;;;;;;;0.5;0.5;;;;;;;14.1;100.0;101640;;;;
2022/07/28 05:12:00;;;;;;;0.5;0.5;;;;;;;14.1;100.0;101640;;;;
2022/07/28 05:13:03;;;;;;;0.5;0.5;;;;;;;14.1;100.0;101640;;;;
2022/07/28 05:14:00;;;;;;;0.5;0.5;;;;;;;14.1;100.0;101640;;;;
2022/07/28 05:15:00;;;;;;;0.5;0.5;;;;;;;14.0;100.0;101650;;;;
2022/07/28 05:16:00;;;;;;;0.5;0.5;;;;;;;14.0;100.0;101650;;;;
2022/07/28 05:17:00;;;;;;;0.5;0.5;;;;;;;14.1;100.0;101650;;;;
2022/07/28 05:18:00;;;;;;;0.5;0.5;;;;;;;14.1;100.0;101650;;;;
2022/07/28 05:19:00;;;;;;;0.5;0.5;;;;;;;14.1;100.0;101650;;;;
2022/07/28 05:20:02;;;;;;;0.5;0.5;;;;;;;14.1;100.0;101650;;;;
2022/07/28 05:21:00;;;;;;;0.5;0.5;;;;;;;14.2;100.0;101650;;;;
2022/07/28 05:22:00;;;;;;;0.5;0.5;;;;;;;14.2;100.0;101650;;;;
2022/07/28 05:23:00;;;;;;;0.5;0.5;;;;;;;14.2;100.0;101660;;;;
2022/07/28 05:24:00;;;;;;;0.5;0.5;;;;;;;14.2;100.0;101660;;;;
2022/07/28 05:25:00;;;;;;;0.4;0.4;;;;;;;14.1;100.0;101660;;;;
2022/07/28 05:26:00;;;;;;;0.4;0.4;;;;;;;14.1;100.0;101660;;;;
2022/07/28 05:27:00;;;;;;;0.4;0.4;;;;;;;14.1;100.0;101650;;;;
2022/07/28 05:28:00;;;;;;;0.4;0.4;;;;;;;14.1;100.0;101650;;;;
2022/07/28 05:29:00;;;;;;;0.4;0.4;;;;;;;14.2;100.0;101660;;;;
2022/07/28 05:30:00;;;;;;;0.4;0.4;;;;;;;14.2;100.0;101660;;;;
2022/07/28 05:31:00;;;;;;;0.4;0.4;;;;;;;14.2;100.0;101660;;;;
2022/07/28 05:32:05;;;;;;;0.4;0.4;;;;;;;14.2;100.0;101660;;;;
2022/07/28 05:33:00;;;;;;;0.4;0.4;;;;;;;14.4;100.0;101660;;;;
2022/07/28 05:34:00;;;;;;;0.4;0.4;;;;;;;14.4;100.0;101660;;;;
2022/07/28 05:35:00;;;;;;;0.4;0.4;;;;;;;14.4;100.0;101660;;;;
2022/07/28 05:36:00;;;;;;;0.4;0.4;;;;;;;14.4;100.0;101660;;;;
2022/07/28 05:37:02;;;;;;;0.4;0.4;;;;;;;14.4;100.0;101660;;;;
2022/07/28 05:38:00;;;;;;;0.4;0.4;;;;;;;14.4;100.0;101660;;;;
2022/07/28 05:39:00;;;;;;;0.4;0.4;;;;;;;14.4;100.0;101660;;;;
2022/07/28 05:40:02;;;;;;;0.4;0.4;;;;;;;14.4;100.0;101660;;;;
2022/07/28 05:41:00;;;;;;;0.4;0.4;;;;;;;14.4;100.0;101660;;;;
2022/07/28 05:42:00;;;;;;;0.4;0.4;;;;;;;14.4;100.0;101660;;;;
2022/07/28 05:43:00;;;;;;;0.4;0.4;;;;;;;14.4;100.0;101660;;;;
2022/07/28 05:44:00;;;;;;;0.4;0.4;;;;;;;14.4;100.0;101660;;;;
2022/07/28 05:45:14;;;;;;;0.5;0.5;;;;;;;14.5;100.0;101660;;;;
2022/07/28 05:46:00;;;;;;;0.5;0.5;;;;;;;14.5;100.0;101660;;;;
2022/07/28 05:47:00;;;;;;;0.5;0.5;;;;;;;14.4;100.0;101670;;;;
2022/07/28 05:48:00;;;;;;;0.5;0.5;;;;;;;14.4;100.0;101670;;;;
2022/07/28 05:49:00;;;;;;;0.5;0.5;;;;;;;14.4;100.0;101660;;;;
2022/07/28 05:50:00;;;;;;;0.5;0.5;;;;;;;14.4;100.0;101660;;;;
2022/07/28 05:51:00;;;;;;;0.5;0.5;;;;;;;14.5;100.0;101670;;;;
2022/07/28 05:52:00;;;;;;;0.5;0.5;;;;;;;14.5;100.0;101670;;;;
2022/07/28 05:53:00;;;;;;;0.5;0.5;;;;;;;14.5;100.0;101660;;;;
2022/07/28 05:54:00;;;;;;;0.5;0.5;;;;;;;14.5;100.0;101660;;;;
2022/07/28 05:55:00;;;;;;;0.5;0.5;;;;;;;14.6;100.0;101670;;;;
2022/07/28 05:56:02;;;;;;;0.5;0.5;;;;;;;14.6;100.0;101670;;;;
2022/07/28 05:57:00;;;;;;;0.5;0.5;;;;;;;14.7;100.0;101660;;;;
2022/07/28 05:58:00;;;;;;;0.5;0.5;;;;;;;14.7;100.0;101660;;;;
2022/07/28 05:59:00;;;;;;;0.5;0.5;;;;;;;14.9;100.0;101670;;;;
2022/07/28 06:00:00;;;;;;;0.5;0.5;;;;;;;14.9;100.0;101670;;;;
2022/07/28 06:01:01;;;;;;;0.5;0.5;;;;;;;14.8;100.0;101660;;;;
2022/07/28 06:02:00;;;;;;;0.5;0.5;;;;;;;14.8;100.0;101660;;;;
2022/07/28 06:03:01;;;;;;;0.5;0.5;;;;;;;15.0;100.0;101660;;;;
2022/07/28 06:04:10;;;;;;;0.5;0.5;;;;;;;15.0;100.0;101660;;;;
2022/07/28 06:05:00;;;;;;;0.3;0.3;;;;;;;15.0;100.0;101670;;;;
2022/07/28 06:06:10;;;;;;;0.3;0.3;;;;;;;15.0;100.0;101670;;;;
2022/07/28 06:07:00;;;;;;;0.3;0.3;;;;;;;15.0;100.0;101670;;;;
2022/07/28 06:08:00;;;;;;;0.3;0.3;;;;;;;15.0;100.0;101670;;;;
2022/07/28 06:09:00;;;;;;;0.3;0.3;;;;;;;15.0;100.0;101670;;;;
2022/07/28 06:10:00;;;;;;;0.3;0.3;;;;;;;15.0;100.0;101670;;;;
2022/07/28 06:11:07;;;;;;;0.3;0.3;;;;;;;15.2;100.0;101670;;;;
2022/07/28 06:12:00;;;;;;;0.3;0.3;;;;;;;15.2;100.0;101670;;;;
2022/07/28 06:13:02;;;;;;;0.3;0.3;;;;;;;15.4;100.0;101670;;;;
2022/07/28 06:14:00;;;;;;;0.3;0.3;;;;;;;15.4;100.0;101670;;;;
2022/07/28 06:15:03;;;;;;;0.3;0.3;;;;;;;15.4;100.0;101670;;;;
2022/07/28 06:16:00;;;;;;;0.3;0.3;;;;;;;15.4;100.0;101670;;;;
2022/07/28 06:17:02;;;;;;;0.3;0.3;;;;;;;15.4;100.0;101670;;;;
2022/07/28 06:18:00;;;;;;;0.3;0.3;;;;;;;15.4;100.0;101670;;;;
2022/07/28 06:19:00;;;;;;;0.3;0.3;;;;;;;15.4;100.0;101670;;;;
2022/07/28 06:20:00;;;;;;;0.3;0.3;;;;;;;15.4;100.0;101670;;;;
2022/07/28 06:21:00;;;;;;;0.3;0.3;;;;;;;15.5;100.0;101670;;;;
2022/07/28 06:22:00;;;;;;;0.3;0.3;;;;;;;15.5;100.0;101670;;;;
2022/07/28 06:23:00;;;;;;;0.3;0.3;;;;;;;15.5;100.0;101670;;;;
2022/07/28 06:24:00;;;;;;;0.3;0.3;;;;;;;15.5;100.0;101670;;;;